Weather at Kroksfjard-Arnes Airport

Public forecast

Using degrees Celsius for public forecast. Weather courtesy of forecast.io.

Closest aviation weather report (METAR) to Kroksfjard-Arnes Airport

Closest report is Bildudalur Airport, 41.0 nm (76.0 km) WNW. Retrieved 2021/06/21 09:00 UTC (39 minutes ago):

BIBD 210900Z 22018G28KT 9999 RA FEW015 OVC028 08/06 Q1007

Closest aviation forecast (TAF) to Kroksfjard-Arnes Airport

Closest forecast is Reykjavik Airport, 80.3 nm (148.7 km) S. Retrieved 2021/06/21 09:34 UTC (5 minutes ago):

TAF BIRK 210732Z 2109/2209 18012KT 9999 OVC020 TX09/2115Z TN07/2112Z TEMPO 2109/2119 5000 RADZ BKN008 OVC013 BECMG 2110/2112 16022KT -RADZ BKN013 OVC020 BECMG 2119/2121 24012KT SCT025 BKN040 TEMPO 2120/2202 1500 -DZ BR OVC005 BECMG 2202/2204 -SHRA BKN018